createdAt,value
2018-02-11T00:01:35.437Z,25.60
2018-02-11T00:04:03.018Z,28.00
2018-02-11T00:06:30.591Z,26.77
2018-02-11T00:08:58.198Z,31.17
2018-02-11T00:11:25.740Z,24.03
2018-02-11T00:13:53.285Z,26.23
2018-02-11T00:16:21.811Z,28.57
2018-02-11T00:18:49.345Z,24.43
2018-02-11T00:21:16.943Z,30.37
2018-02-11T00:23:44.476Z,25.00
2018-02-11T00:26:12.099Z,24.00
2018-02-11T00:28:39.656Z,30.70
2018-02-11T00:31:07.997Z,24.00
2018-02-11T00:33:35.581Z,27.63
2018-02-11T00:36:03.473Z,24.07
2018-02-11T00:38:31.076Z,25.53
2018-02-11T00:40:58.684Z,27.85
2018-02-11T00:43:26.270Z,23.92
2018-02-11T00:45:53.854Z,26.98
2018-02-11T00:48:21.407Z,23.62
2018-02-11T00:50:49.036Z,25.67
2018-02-11T00:53:16.607Z,25.00
2018-02-11T00:55:44.184Z,27.83
2018-02-11T00:58:11.758Z,22.98
2018-02-11T01:00:39.369Z,25.45
2018-02-11T01:03:06.957Z,24.97
2018-02-11T01:05:35.445Z,25.63
2018-02-11T01:08:03.030Z,24.50
2018-02-11T01:10:30.621Z,23.17
2018-02-11T01:12:58.182Z,30.45
2018-02-11T01:15:26.563Z,27.20
2018-02-11T01:17:54.126Z,36.93
2018-02-11T01:20:22.431Z,23.70
2018-02-11T01:22:50.022Z,24.58
2018-02-11T01:25:17.576Z,24.40
2018-02-11T01:27:45.942Z,24.20
2018-02-11T01:30:13.487Z,24.73
2018-02-11T01:32:41.095Z,23.73
2018-02-11T01:35:08.663Z,30.33
2018-02-11T01:37:36.256Z,22.55
2018-02-11T01:40:03.851Z,23.07
2018-02-11T01:42:31.405Z,24.93
2018-02-11T01:44:58.983Z,24.03
2018-02-11T01:47:26.533Z,20.57
2018-02-11T01:50:06.806Z,25.27
2018-02-11T01:52:34.367Z,23.48
2018-02-11T01:55:01.921Z,23.48
2018-02-11T01:57:30.280Z,23.73
2018-02-11T01:59:57.871Z,24.27
2018-02-11T02:02:25.471Z,22.35
2018-02-11T02:04:53.085Z,22.92
2018-02-11T02:07:20.636Z,22.37
2018-02-11T02:09:48.999Z,26.15
2018-02-11T02:12:16.572Z,21.67
2018-02-11T02:14:44.190Z,24.08
2018-02-11T02:17:12.500Z,19.45
2018-02-11T02:19:40.870Z,19.60
2018-02-11T02:22:08.494Z,21.67
2018-02-11T02:24:36.091Z,31.87
2018-02-11T02:27:04.444Z,23.08
2018-02-11T02:29:32.007Z,22.23
2018-02-11T02:31:59.654Z,22.73
2018-02-11T02:34:28.047Z,22.65
2018-02-11T02:36:55.670Z,20.48
2018-02-11T02:39:23.242Z,21.40
2018-02-11T02:41:50.801Z,21.80
2018-02-11T02:44:18.418Z,18.08
2018-02-11T02:46:46.754Z,19.73
2018-02-11T02:49:15.133Z,20.88
2018-02-11T02:51:42.703Z,21.45
2018-02-11T02:54:11.033Z,21.83
2018-02-11T02:56:39.376Z,25.23
2018-02-11T02:59:07.704Z,21.08
2018-02-11T03:01:35.415Z,19.95
2018-02-11T03:04:03.000Z,21.15
2018-02-11T03:06:31.347Z,21.90
2018-02-11T03:08:58.937Z,22.58
2018-02-11T03:11:26.494Z,23.70
2018-02-11T03:13:54.083Z,22.70
2018-02-11T03:16:21.656Z,21.23
2018-02-11T03:18:49.958Z,22.77
2018-02-11T03:21:18.341Z,21.40
2018-02-11T03:23:45.891Z,21.83
2018-02-11T03:26:14.240Z,22.10
2018-02-11T03:28:42.542Z,19.75
2018-02-11T03:31:10.150Z,22.92
2018-02-11T03:33:37.696Z,20.67
2018-02-11T03:36:31.162Z,23.75
2018-02-11T03:38:58.758Z,23.02
2018-02-11T03:41:27.089Z,22.23
2018-02-11T03:43:55.486Z,24.08
2018-02-11T03:46:23.061Z,22.45
2018-02-11T03:48:50.651Z,19.42
2018-02-11T03:51:18.202Z,18.67
2018-02-11T03:53:46.528Z,17.42
2018-02-11T03:56:14.881Z,19.23
2018-02-11T03:58:42.445Z,21.58
2018-02-11T04:01:10.095Z,21.25
2018-02-11T04:03:37.640Z,18.85
2018-02-11T04:06:05.433Z,18.85
2018-02-11T04:08:32.994Z,18.55
2018-02-11T04:11:00.634Z,21.50
2018-02-11T04:13:28.306Z,19.77
2018-02-11T04:15:55.865Z,17.05
2018-02-11T04:18:23.462Z,21.65
2018-02-11T04:20:51.031Z,18.02
2018-02-11T04:23:18.667Z,17.48
2018-02-11T04:25:47.042Z,19.30
2018-02-11T04:28:14.620Z,17.35
2018-02-11T04:30:42.165Z,15.50
2018-02-11T04:33:09.747Z,17.15
2018-02-11T04:35:37.286Z,16.23
2018-02-11T04:38:05.630Z,14.85
2018-02-11T04:40:33.865Z,15.40
2018-02-11T04:43:01.417Z,18.15
2018-02-11T04:45:29.000Z,17.00
2018-02-11T04:47:56.570Z,17.08
2018-02-11T04:50:24.220Z,17.10
2018-02-11T04:52:51.778Z,13.15
2018-02-11T04:55:19.344Z,15.15
2018-02-11T04:57:47.689Z,14.80
2018-02-11T05:00:15.313Z,19.48
2018-02-11T05:02:43.682Z,14.57
2018-02-11T05:05:11.235Z,16.33
2018-02-11T05:07:38.772Z,15.10
2018-02-11T05:10:06.364Z,14.98
2018-02-11T05:12:33.910Z,17.27
2018-02-11T05:15:01.437Z,19.42
2018-02-11T05:17:29.072Z,17.15
2018-02-11T05:19:56.655Z,14.25
2018-02-11T05:22:24.270Z,14.07
2018-02-11T05:24:51.799Z,15.50
2018-02-11T05:27:20.174Z,17.65
2018-02-11T05:29:47.720Z,14.45
2018-02-11T05:32:15.264Z,17.77
2018-02-11T05:34:42.826Z,15.90
2018-02-11T05:37:10.393Z,15.57
2018-02-11T05:39:37.994Z,25.15
2018-02-11T05:42:06.756Z,16.80
2018-02-11T05:44:35.279Z,17.52
2018-02-11T05:47:02.855Z,13.80
2018-02-11T05:49:30.441Z,15.45
2018-02-11T05:51:58.176Z,19.17
2018-02-11T05:54:25.725Z,18.37
2018-02-11T05:56:54.040Z,20.45
2018-02-11T05:59:21.853Z,21.73
2018-02-11T06:01:50.191Z,16.95
2018-02-11T06:04:17.747Z,17.87
2018-02-11T06:06:45.882Z,21.52
2018-02-11T06:09:13.446Z,21.12
2018-02-11T06:11:40.988Z,19.33
2018-02-11T06:14:09.536Z,19.58
2018-02-11T06:16:37.062Z,21.25
2018-02-11T06:19:05.433Z,21.87
2018-02-11T06:21:33.868Z,22.60
2018-02-11T06:24:01.423Z,21.90
2018-02-11T06:26:29.088Z,20.17
2018-02-11T06:28:56.854Z,20.12
2018-02-11T06:31:25.169Z,24.35
2018-02-11T06:33:52.710Z,20.95
2018-02-11T06:36:21.133Z,22.48
2018-02-11T06:38:48.692Z,23.12
2018-02-11T06:41:16.232Z,24.48
2018-02-11T06:43:43.992Z,21.35
2018-02-11T06:46:12.321Z,20.60
2018-02-11T06:48:39.875Z,26.75
2018-02-11T06:51:08.518Z,26.87
2018-02-11T06:53:36.065Z,26.70
2018-02-11T06:56:03.660Z,22.60
2018-02-11T06:58:31.228Z,22.77
2018-02-11T07:00:58.801Z,23.87
2018-02-11T07:03:26.373Z,29.37
2018-02-11T07:05:53.930Z,21.58
2018-02-11T07:08:21.528Z,22.73
2018-02-11T07:10:49.970Z,20.70
2018-02-11T07:13:17.527Z,21.98
2018-02-11T07:15:45.113Z,19.25
2018-02-11T07:18:12.674Z,19.40
2018-02-11T07:20:40.273Z,20.80
2018-02-11T07:23:07.810Z,21.65
2018-02-11T07:25:35.645Z,23.15
2018-02-11T07:28:03.182Z,22.15
2018-02-11T07:30:30.731Z,19.48
2018-02-11T07:32:58.313Z,23.33
2018-02-11T07:35:25.900Z,23.55
2018-02-11T07:37:53.559Z,19.58
2018-02-11T07:40:21.159Z,22.53
2018-02-11T07:42:48.828Z,19.43
2018-02-11T07:45:16.375Z,20.33
2018-02-11T07:47:43.997Z,19.77
2018-02-11T07:50:12.346Z,17.80
2018-02-11T07:52:40.000Z,23.47
2018-02-11T07:55:07.664Z,23.73
2018-02-11T07:57:36.958Z,26.07
2018-02-11T08:00:04.519Z,20.23
2018-02-11T08:02:32.867Z,22.10
2018-02-11T08:05:00.417Z,19.37
2018-02-11T08:07:28.097Z,18.53
2018-02-11T08:09:55.714Z,21.63
2018-02-11T08:12:23.284Z,25.27
2018-02-11T08:14:50.880Z,24.10
2018-02-11T08:17:18.457Z,27.43
2018-02-11T08:19:46.057Z,27.13
2018-02-11T08:22:13.670Z,32.40
2018-02-11T08:24:41.207Z,28.43
2018-02-11T08:27:08.779Z,31.23
2018-02-11T08:29:36.435Z,33.40
2018-02-11T08:32:04.015Z,37.67
2018-02-11T08:37:24.599Z,80.20
2018-02-11T08:39:52.964Z,69.60
2018-02-11T08:42:20.539Z,78.03
2018-02-11T08:44:48.149Z,39.93
2018-02-11T08:47:16.464Z,34.27
2018-02-11T08:49:44.811Z,128.53
2018-02-11T08:52:12.424Z,68.20
2018-02-11T08:54:40.063Z,45.50
2018-02-11T08:57:08.389Z,47.40
2018-02-11T08:59:36.987Z,46.30
2018-02-11T09:02:04.555Z,85.87
2018-02-11T09:04:32.100Z,83.70
2018-02-11T09:07:00.456Z,69.10
2018-02-11T09:09:28.069Z,76.60
2018-02-11T09:11:56.410Z,47.33
2018-02-11T09:14:24.746Z,37.00
2018-02-11T09:16:52.347Z,40.97
2018-02-11T09:19:20.644Z,43.80
2018-02-11T09:21:48.238Z,48.17
2018-02-11T09:24:15.832Z,39.17
2018-02-11T09:26:43.379Z,31.20
2018-02-11T09:29:10.960Z,71.50
2018-02-11T09:31:38.503Z,44.07
2018-02-11T09:34:06.134Z,46.83
2018-02-11T09:36:33.699Z,40.67
2018-02-11T09:39:01.239Z,53.67
2018-02-11T09:41:28.908Z,31.03
2018-02-11T09:43:56.461Z,36.53
2018-02-11T09:46:24.069Z,48.97
2018-02-11T09:48:51.615Z,41.20
2018-02-11T09:51:19.214Z,30.70
2018-02-11T09:53:46.777Z,37.90
2018-02-11T09:56:15.178Z,42.67
2018-02-11T09:58:42.852Z,37.97
2018-02-11T10:01:10.444Z,36.30
2018-02-11T10:03:38.023Z,66.97
2018-02-11T10:06:06.137Z,39.30
2018-02-11T10:08:33.718Z,33.70
2018-02-11T10:11:01.259Z,25.50
2018-02-11T10:13:28.982Z,40.13
2018-02-11T10:15:56.656Z,20.60
2018-02-11T10:18:24.226Z,46.57
2018-02-11T10:20:51.834Z,26.83
2018-02-11T10:23:19.446Z,40.50
2018-02-11T10:25:47.051Z,35.60
2018-02-11T10:28:15.390Z,38.07
2018-02-11T10:30:42.991Z,29.23
2018-02-11T10:33:11.360Z,53.33
2018-02-11T10:35:39.014Z,42.93
2018-02-11T10:38:07.336Z,33.90
2018-02-11T10:40:36.688Z,43.00
2018-02-11T10:43:04.246Z,38.17
2018-02-11T10:45:31.832Z,26.00
2018-02-11T10:48:00.136Z,36.20
2018-02-11T10:50:28.497Z,32.40
2018-02-11T10:52:56.136Z,31.93
2018-02-11T10:55:23.701Z,33.87
2018-02-11T10:57:52.209Z,43.37
2018-02-11T11:00:19.812Z,37.33
2018-02-11T11:02:47.416Z,33.20
2018-02-11T11:05:15.081Z,31.47
2018-02-11T11:07:42.677Z,40.50
2018-02-11T11:10:10.285Z,32.67
2018-02-11T11:12:38.608Z,52.63
2018-02-11T11:15:06.990Z,27.13
2018-02-11T11:17:34.541Z,29.17
2018-02-11T11:20:02.950Z,42.17
2018-02-11T11:22:30.583Z,42.13
2018-02-11T11:24:58.186Z,30.23
2018-02-11T11:27:25.735Z,32.73
2018-02-11T11:29:53.297Z,29.07
2018-02-11T11:32:21.647Z,32.33
2018-02-11T11:34:49.994Z,33.67
2018-02-11T11:37:17.591Z,24.83
2018-02-11T11:39:46.021Z,24.90
2018-02-11T11:42:13.613Z,22.97
2018-02-11T11:44:41.272Z,25.07
2018-02-11T11:47:09.853Z,29.57
2018-02-11T11:49:37.456Z,40.33
2018-02-11T11:52:05.878Z,25.97
2018-02-11T11:54:33.487Z,31.73
2018-02-11T11:57:01.856Z,27.80
2018-02-11T11:59:29.563Z,25.73
2018-02-11T12:01:57.947Z,26.23
2018-02-11T12:04:25.616Z,21.47
2018-02-11T12:06:53.915Z,25.80
2018-02-11T12:09:21.468Z,20.00
2018-02-11T12:11:49.085Z,28.27
2018-02-11T12:14:16.712Z,22.50
2018-02-11T12:16:44.298Z,23.00
2018-02-11T12:19:11.832Z,22.33
2018-02-11T12:21:39.415Z,22.77
2018-02-11T12:24:07.709Z,18.77
2018-02-11T12:26:35.564Z,23.57
2018-02-11T12:29:03.906Z,40.40
2018-02-11T12:31:31.475Z,31.13
2018-02-11T12:33:59.088Z,20.70
2018-02-11T12:36:26.660Z,21.03
2018-02-11T12:39:01.376Z,24.23
2018-02-11T12:41:28.950Z,27.23
2018-02-11T12:43:58.775Z,27.37
2018-02-11T12:46:26.426Z,32.33
2018-02-11T12:48:54.059Z,34.80
2018-02-11T12:51:21.657Z,26.43
2018-02-11T12:53:50.204Z,57.63
2018-02-11T12:56:18.524Z,37.23
2018-02-11T12:58:46.122Z,24.90
2018-02-11T13:01:13.697Z,30.30
2018-02-11T13:03:41.259Z,31.73
2018-02-11T13:06:08.858Z,31.60
2018-02-11T13:08:36.421Z,30.83
2018-02-11T13:11:04.029Z,27.23
2018-02-11T13:13:31.606Z,30.13
2018-02-11T13:15:59.212Z,22.13
2018-02-11T13:18:26.773Z,29.00
2018-02-11T13:20:54.329Z,18.83
2018-02-11T13:23:22.713Z,30.83
2018-02-11T13:25:50.384Z,19.63
2018-02-11T13:28:18.756Z,42.60
2018-02-11T13:30:46.418Z,24.33
2018-02-11T13:33:13.971Z,26.20
2018-02-11T13:35:41.600Z,23.53
2018-02-11T13:38:09.995Z,23.73
2018-02-11T13:40:37.548Z,22.20
2018-02-11T13:43:06.338Z,19.57
2018-02-11T13:45:34.324Z,20.93
2018-02-11T13:48:02.700Z,18.23
2018-02-11T13:50:30.325Z,19.70
2018-02-11T13:52:58.862Z,16.50
2018-02-11T13:55:26.514Z,19.53
2018-02-11T13:57:54.126Z,16.57
2018-02-11T14:00:21.845Z,18.00
2018-02-11T14:02:49.469Z,19.30
2018-02-11T14:05:17.933Z,18.60
2018-02-11T14:07:46.333Z,20.40
2018-02-11T14:10:15.847Z,19.10
2018-02-11T14:12:43.468Z,22.73
2018-02-11T14:15:11.144Z,23.57
2018-02-11T14:17:38.798Z,31.53
2018-02-11T14:20:06.430Z,21.57
2018-02-11T14:22:34.818Z,19.30
2018-02-11T14:25:02.508Z,18.57
2018-02-11T14:27:32.186Z,20.30
2018-02-11T14:29:59.772Z,19.23
2018-02-11T14:32:27.381Z,22.27
2018-02-11T14:34:55.011Z,21.53
2018-02-11T14:37:22.646Z,26.43
2018-02-11T14:39:50.219Z,23.07
2018-02-11T14:42:17.798Z,23.07
2018-02-11T14:44:45.331Z,25.37
2018-02-11T14:47:12.913Z,25.83
2018-02-11T14:49:41.265Z,26.10
2018-02-11T14:52:09.788Z,27.53
2018-02-11T14:54:38.160Z,24.17
2018-02-11T14:57:06.477Z,25.70
2018-02-11T14:59:34.790Z,28.73
2018-02-11T15:02:02.372Z,30.47
2018-02-11T15:04:29.969Z,42.67
2018-02-11T15:06:58.263Z,42.70
2018-02-11T15:09:25.863Z,32.67
2018-02-11T15:11:53.435Z,46.20
2018-02-11T15:14:21.764Z,43.37
2018-02-11T15:16:49.425Z,39.47
2018-02-11T15:19:17.088Z,35.20
2018-02-11T15:21:44.676Z,30.60
2018-02-11T15:24:12.225Z,32.50
2018-02-11T15:26:39.817Z,32.80
2018-02-11T15:29:09.295Z,24.13
2018-02-11T15:31:37.759Z,21.00
2018-02-11T15:34:05.353Z,26.20
2018-02-11T15:36:33.738Z,25.23
2018-02-11T15:39:01.378Z,29.20
2018-02-11T15:41:29.011Z,28.97
2018-02-11T15:43:56.627Z,28.83
2018-02-11T15:46:24.188Z,33.13
2018-02-11T15:48:51.873Z,26.13
2018-02-11T15:51:19.505Z,32.53
2018-02-11T15:53:47.092Z,30.63
2018-02-11T15:56:14.707Z,25.90
2018-02-11T15:58:43.061Z,38.03
2018-02-11T16:01:11.436Z,28.57
2018-02-11T16:03:38.970Z,29.70
2018-02-11T16:06:07.489Z,35.63
2018-02-11T16:08:35.990Z,30.40
2018-02-11T16:11:03.661Z,31.93
2018-02-11T16:13:31.314Z,30.20
2018-02-11T16:15:58.950Z,26.73
2018-02-11T16:18:26.521Z,31.40
2018-02-11T16:20:54.120Z,24.03
2018-02-11T16:23:21.863Z,28.50
2018-02-11T16:25:49.619Z,25.20
2018-02-11T16:28:17.411Z,28.37
2018-02-11T16:30:45.147Z,31.33
2018-02-11T16:33:14.787Z,25.13
2018-02-11T16:35:43.669Z,39.57
2018-02-11T16:38:11.607Z,28.13
2018-02-11T16:40:43.518Z,32.40
2018-02-11T16:43:11.323Z,30.67
2018-02-11T16:45:38.969Z,30.40
2018-02-11T16:48:08.051Z,28.47
2018-02-11T16:50:36.632Z,30.37
2018-02-11T16:53:04.277Z,29.67
2018-02-11T16:55:31.877Z,25.30
2018-02-11T16:57:59.614Z,35.50
2018-02-11T17:00:27.973Z,26.20
2018-02-11T17:02:55.527Z,24.63
2018-02-11T17:05:24.029Z,25.13
2018-02-11T17:07:52.442Z,24.70
2018-02-11T17:10:20.059Z,29.13
2018-02-11T17:12:47.690Z,24.03
2018-02-11T17:15:15.254Z,35.50
2018-02-11T17:17:42.870Z,28.93
2018-02-11T17:20:10.559Z,29.40
2018-02-11T17:22:38.170Z,23.90
2018-02-11T17:25:06.006Z,24.30
2018-02-11T17:27:33.618Z,22.83
2018-02-11T17:30:01.244Z,24.93
2018-02-11T17:32:28.906Z,27.67
2018-02-11T17:34:56.719Z,19.77
2018-02-11T17:37:25.168Z,20.07
2018-02-11T17:39:53.559Z,20.60
2018-02-11T17:42:21.232Z,20.60
2018-02-11T17:44:49.991Z,17.57
2018-02-11T17:47:17.266Z,18.90
2018-02-11T17:49:44.984Z,19.47
2018-02-11T17:52:12.542Z,18.23
2018-02-11T17:54:40.099Z,18.30
2018-02-11T17:57:07.856Z,17.23
2018-02-11T17:59:36.833Z,23.13
2018-02-11T18:02:04.421Z,24.57
2018-02-11T18:04:32.786Z,21.83
2018-02-11T18:07:00.428Z,20.27
2018-02-11T18:09:28.092Z,17.17
2018-02-11T18:11:55.715Z,17.20
2018-02-11T18:14:23.324Z,18.10
2018-02-11T18:16:50.884Z,20.33
2018-02-11T18:19:18.465Z,17.67
2018-02-11T18:21:46.305Z,17.43
2018-02-11T18:24:13.872Z,14.43
2018-02-11T18:26:41.516Z,14.63
2018-02-11T18:29:09.827Z,17.03
2018-02-11T18:31:37.613Z,21.13
2018-02-11T18:34:07.030Z,15.57
2018-02-11T18:36:34.930Z,14.80
2018-02-11T18:39:02.516Z,14.67
2018-02-11T18:41:30.232Z,14.10
2018-02-11T18:43:58.105Z,19.47
2018-02-11T18:46:25.798Z,17.80
2018-02-11T18:48:53.449Z,17.30
2018-02-11T18:51:22.103Z,17.73
2018-02-11T18:53:49.738Z,21.67
2018-02-11T18:56:18.084Z,20.97
2018-02-11T18:58:45.854Z,23.70
2018-02-11T19:01:13.482Z,25.63
2018-02-11T19:03:41.116Z,19.50
2018-02-11T19:06:08.883Z,19.50
2018-02-11T19:08:36.531Z,21.00
2018-02-11T19:11:04.898Z,18.43
2018-02-11T19:13:33.845Z,21.80
2018-02-11T19:16:02.207Z,20.57
2018-02-11T19:18:29.795Z,18.93
2018-02-11T19:20:58.313Z,22.27
2018-02-11T19:23:25.883Z,20.40
2018-02-11T19:25:53.456Z,25.03
2018-02-11T19:28:21.175Z,26.60
2018-02-11T19:30:48.775Z,22.07
2018-02-11T19:33:16.336Z,17.30
2018-02-11T19:35:44.758Z,21.10
2018-02-11T19:38:12.322Z,24.07
2018-02-11T19:40:40.680Z,20.83
2018-02-11T19:43:08.353Z,23.60
2018-02-11T19:45:35.913Z,22.13
2018-02-11T19:48:03.520Z,23.03
2018-02-11T19:50:31.234Z,21.00
2018-02-11T19:52:58.779Z,19.80
2018-02-11T19:55:26.315Z,21.67
2018-02-11T19:57:54.076Z,17.97
2018-02-11T20:00:22.400Z,21.90
2018-02-11T20:02:49.976Z,21.50
2018-02-11T20:05:18.436Z,24.60
2018-02-11T20:07:46.736Z,22.27
2018-02-11T20:10:14.306Z,17.77
2018-02-11T20:12:42.026Z,19.03
2018-02-11T20:15:09.706Z,21.00
2018-02-11T20:17:37.791Z,19.17
2018-02-11T20:20:06.846Z,19.40
2018-02-11T20:22:34.392Z,21.43
2018-02-11T20:25:01.943Z,20.63
2018-02-11T20:27:29.693Z,21.77
2018-02-11T20:29:57.229Z,21.63
2018-02-11T20:32:24.788Z,20.40
2018-02-11T20:34:52.465Z,25.40
2018-02-11T20:37:20.008Z,21.20
2018-02-11T20:39:47.557Z,23.93
2018-02-11T20:42:15.245Z,25.30
2018-02-11T20:44:42.797Z,22.87
2018-02-11T20:47:10.350Z,23.87
2018-02-11T20:49:38.567Z,20.00
2018-02-11T20:52:07.378Z,21.87
2018-02-11T20:54:34.944Z,22.43
2018-02-11T20:57:04.022Z,22.03
2018-02-11T20:59:32.486Z,18.27
2018-02-11T21:02:00.821Z,20.13
2018-02-11T21:04:29.340Z,23.77
2018-02-11T21:06:56.918Z,23.53
2018-02-11T21:09:24.451Z,20.47
2018-02-11T21:11:52.138Z,23.07
2018-02-11T21:14:19.693Z,20.63
2018-02-11T21:16:47.390Z,23.70
2018-02-11T21:19:15.916Z,19.60
2018-02-11T21:21:43.449Z,17.20
2018-02-11T21:24:10.982Z,17.77
2018-02-11T21:26:38.700Z,19.90
2018-02-11T21:29:06.263Z,19.20
2018-02-11T21:31:34.563Z,18.20
2018-02-11T21:34:02.574Z,18.90
2018-02-11T21:36:30.208Z,19.00
2018-02-11T21:38:57.781Z,20.90
2018-02-11T21:41:25.398Z,20.53
2018-02-11T21:43:52.954Z,19.30
2018-02-11T21:46:20.512Z,26.07
2018-02-11T21:48:48.192Z,19.37
2018-02-11T21:51:15.748Z,18.27
2018-02-11T21:53:43.288Z,18.20
2018-02-11T21:56:11.746Z,17.97
2018-02-11T21:58:39.318Z,15.37
2018-02-11T22:01:07.569Z,14.20
2018-02-11T22:03:35.604Z,14.50
2018-02-11T22:06:03.153Z,14.97
2018-02-11T22:08:31.564Z,15.03
2018-02-11T22:10:59.314Z,15.13
2018-02-11T22:13:26.860Z,20.30
2018-02-11T22:15:54.431Z,14.67
2018-02-11T22:18:22.564Z,12.50
2018-02-11T22:20:50.120Z,14.13
2018-02-11T22:23:17.664Z,12.97
2018-02-11T22:25:45.350Z,11.83
2018-02-11T22:28:12.918Z,11.20
2018-02-11T22:30:40.469Z,10.80
2018-02-11T22:33:08.230Z,11.70
2018-02-11T22:35:36.535Z,11.30
2018-02-11T22:38:04.849Z,10.83
2018-02-11T22:40:32.585Z,12.17
2018-02-11T22:43:00.878Z,9.13
2018-02-11T22:45:28.418Z,12.73
2018-02-11T22:47:56.863Z,9.40
2018-02-11T22:50:24.391Z,13.37
2018-02-11T22:52:51.932Z,12.37
2018-02-11T22:55:19.617Z,8.73
2018-02-11T22:57:47.930Z,8.40
2018-02-11T23:00:15.502Z,13.03
2018-02-11T23:02:43.167Z,10.17
2018-02-11T23:05:11.479Z,12.40
2018-02-11T23:07:39.821Z,14.27
2018-02-11T23:10:07.999Z,13.27
2018-02-11T23:12:35.545Z,10.60
2018-02-11T23:15:03.096Z,17.20
2018-02-11T23:17:30.744Z,15.10
2018-02-11T23:19:58.731Z,14.73
2018-02-11T23:22:27.054Z,10.63
2018-02-11T23:24:55.493Z,13.00
2018-02-11T23:27:23.821Z,12.00
2018-02-11T23:29:52.174Z,16.00
2018-02-11T23:32:19.842Z,12.70
2018-02-11T23:34:47.382Z,14.37
2018-02-11T23:37:14.926Z,11.93
2018-02-11T23:39:42.483Z,13.20
2018-02-11T23:42:10.068Z,12.03
2018-02-11T23:44:37.606Z,13.93
2018-02-11T23:47:05.464Z,12.90
2018-02-11T23:49:33.761Z,13.30
2018-02-11T23:52:01.339Z,13.10
2018-02-11T23:54:28.887Z,13.97
2018-02-11T23:56:56.489Z,12.27
2018-02-11T23:59:24.075Z,12.63
